createdAt,value
2023-04-05T00:00:54.372Z,4.60
2023-04-05T00:03:22.149Z,4.68
2023-04-05T00:05:50.546Z,4.15
2023-04-05T00:08:23.746Z,4.22
2023-04-05T00:13:20.347Z,3.72
2023-04-05T00:15:49.160Z,3.85
2023-04-05T00:18:23.719Z,3.67
2023-04-05T00:20:52.089Z,4.30
2023-04-05T00:23:21.353Z,3.90
2023-04-05T00:25:49.138Z,4.15
2023-04-05T00:28:16.762Z,4.53
2023-04-05T00:30:45.837Z,4.13
2023-04-05T00:33:13.731Z,4.32
2023-04-05T00:35:41.375Z,4.20
2023-04-05T00:38:09.079Z,4.43
2023-04-05T00:40:37.154Z,4.78
2023-04-05T00:43:04.737Z,4.78
2023-04-05T00:45:32.782Z,4.28
2023-04-05T00:48:01.905Z,4.30
2023-04-05T00:50:30.730Z,4.30
2023-04-05T00:52:58.585Z,4.15
2023-04-05T00:55:26.836Z,5.07
2023-04-05T00:57:55.763Z,4.68
2023-04-05T01:00:24.481Z,5.97
2023-04-05T01:02:55.027Z,4.57
2023-04-05T01:05:33.783Z,4.53
2023-04-05T01:08:09.099Z,5.00
2023-04-05T01:10:40.040Z,4.28
2023-04-05T01:13:08.762Z,4.50
2023-04-05T01:15:36.535Z,4.10
2023-04-05T01:18:04.730Z,4.13
2023-04-05T01:20:40.742Z,3.65
2023-04-05T01:23:30.918Z,3.63
2023-04-05T01:26:18.733Z,3.70
2023-04-05T01:29:01.000Z,3.53
2023-04-05T01:31:38.287Z,3.83
2023-04-05T01:34:12.426Z,3.25
2023-04-05T01:36:42.571Z,3.28
2023-04-05T01:39:15.166Z,3.83
2023-04-05T01:41:42.796Z,3.72
2023-04-05T01:44:10.418Z,3.97
2023-04-05T01:54:51.300Z,3.63
2023-04-05T01:57:18.844Z,3.60
2023-04-05T01:59:46.933Z,3.80
2023-04-05T02:02:14.512Z,3.80
2023-04-05T02:04:42.303Z,3.53
2023-04-05T02:07:10.882Z,3.55
2023-04-05T02:09:38.488Z,3.47
2023-04-05T02:12:07.527Z,3.58
2023-04-05T02:14:35.335Z,3.30
2023-04-05T02:17:03.103Z,3.80
2023-04-05T02:19:37.079Z,4.07
2023-04-05T02:22:04.832Z,4.25
2023-04-05T02:24:32.414Z,4.07
2023-04-05T02:27:00.029Z,4.60
2023-04-05T02:29:29.082Z,3.55
2023-04-05T02:31:56.780Z,3.45
2023-04-05T02:34:24.445Z,3.40
2023-04-05T02:36:52.332Z,3.53
2023-04-05T02:39:19.895Z,3.63
2023-04-05T02:41:47.737Z,3.35
2023-04-05T02:44:15.375Z,4.00
2023-04-05T02:46:44.303Z,4.20
2023-04-05T02:49:11.993Z,3.72
2023-04-05T02:51:39.731Z,4.20
2023-04-05T02:54:10.198Z,3.55
2023-04-05T02:56:38.195Z,3.85
2023-04-05T02:59:13.494Z,4.45
2023-04-05T03:01:45.131Z,3.88
2023-04-05T03:04:21.795Z,4.57
2023-04-05T03:06:52.191Z,4.10
2023-04-05T03:09:21.337Z,4.00
2023-04-05T03:11:53.224Z,4.30
2023-04-05T03:14:20.792Z,3.95
2023-04-05T03:16:50.525Z,4.28
2023-04-05T03:19:26.209Z,4.45
2023-04-05T03:21:59.578Z,4.38
2023-04-05T03:24:32.740Z,3.03
2023-04-05T03:27:05.882Z,3.70
2023-04-05T03:29:39.357Z,4.00
2023-04-05T03:32:15.242Z,4.03
2023-04-05T03:34:49.823Z,4.35
2023-04-05T03:37:19.356Z,4.40
2023-04-05T03:39:54.222Z,4.20
2023-04-05T03:42:21.821Z,4.40
2023-04-05T03:44:53.231Z,4.10
2023-04-05T03:47:22.559Z,4.47
2023-04-05T03:49:52.154Z,4.28
2023-04-05T03:52:19.791Z,4.07
2023-04-05T03:54:47.319Z,4.30
2023-04-05T03:57:21.356Z,4.50
2023-04-05T03:59:50.652Z,4.75
2023-04-05T04:02:18.767Z,3.97
2023-04-05T04:04:47.871Z,4.30
2023-04-05T04:07:16.348Z,4.18
2023-04-05T04:09:43.993Z,4.22
2023-04-05T04:12:13.047Z,4.30
2023-04-05T04:14:49.991Z,4.07
2023-04-05T04:17:46.843Z,4.30
2023-04-05T04:20:38.594Z,4.20
2023-04-05T04:23:14.346Z,3.95
2023-04-05T04:26:01.585Z,4.68
2023-04-05T04:28:48.724Z,4.30
2023-04-05T04:31:27.689Z,4.93
2023-04-05T04:34:14.556Z,4.03
2023-04-05T04:37:02.885Z,4.63
2023-04-05T04:39:51.655Z,4.45
2023-04-05T04:42:44.302Z,5.40
2023-04-05T04:45:34.584Z,4.75
2023-04-05T04:48:09.890Z,4.00
2023-04-05T04:50:49.673Z,4.32
2023-04-05T04:53:18.680Z,4.35
2023-04-05T04:55:49.918Z,4.22
2023-04-05T04:58:18.015Z,4.38
2023-04-05T05:00:53.041Z,3.85
2023-04-05T05:03:22.314Z,4.22
2023-04-05T05:05:51.185Z,4.50
2023-04-05T05:08:24.167Z,3.90
2023-04-05T05:10:53.007Z,4.43
2023-04-05T05:13:20.718Z,4.60
2023-04-05T05:15:48.404Z,5.10
2023-04-05T05:18:16.037Z,3.95
2023-04-05T05:20:43.789Z,4.05
2023-04-05T05:23:11.498Z,4.68
2023-04-05T05:25:40.852Z,4.50
2023-04-05T05:28:08.427Z,5.03
2023-04-05T05:30:36.076Z,5.47
2023-04-05T05:33:03.710Z,5.47
2023-04-05T05:35:31.407Z,4.22
2023-04-05T05:37:58.967Z,4.30
2023-04-05T05:40:27.070Z,4.15
2023-04-05T05:42:56.120Z,4.65
2023-04-05T05:45:23.674Z,4.47
2023-04-05T05:47:51.393Z,4.50
2023-04-05T05:50:20.537Z,4.43
2023-04-05T05:52:48.119Z,5.00
2023-04-05T05:55:15.797Z,4.97
2023-04-05T05:57:43.382Z,4.25
2023-04-05T06:00:13.831Z,10.40
2023-04-05T06:02:42.713Z,8.93
2023-04-05T06:05:10.625Z,9.00
2023-04-05T06:07:38.418Z,5.47
2023-04-05T06:10:06.683Z,4.93
2023-04-05T06:12:34.663Z,5.43
2023-04-05T06:15:03.062Z,4.72
2023-04-05T06:17:34.069Z,4.30
2023-04-05T06:20:01.754Z,4.57
2023-04-05T06:22:29.841Z,4.80
2023-04-05T06:24:57.395Z,4.82
2023-04-05T06:27:24.996Z,4.97
2023-04-05T06:29:52.576Z,7.80
2023-04-05T06:32:20.632Z,7.57
2023-04-05T06:34:49.768Z,7.18
2023-04-05T06:37:17.318Z,6.20
2023-04-05T06:39:44.868Z,6.32
2023-04-05T06:42:12.391Z,8.27
2023-04-05T06:44:46.074Z,14.95
2023-04-05T06:47:14.442Z,13.25
2023-04-05T06:49:42.077Z,9.25
2023-04-05T06:52:10.934Z,7.10
2023-04-05T06:54:39.408Z,6.57
2023-04-05T06:57:06.947Z,7.45
2023-04-05T06:59:34.798Z,6.30
2023-04-05T07:02:02.702Z,6.68
2023-04-05T07:04:33.163Z,5.82
2023-04-05T07:07:02.108Z,5.95
2023-04-05T07:09:32.620Z,6.05
2023-04-05T07:12:01.286Z,6.03
2023-04-05T07:14:30.657Z,6.15
2023-04-05T07:16:58.311Z,5.75
2023-04-05T07:19:26.200Z,5.95
2023-04-05T07:21:53.842Z,5.85
2023-04-05T07:24:21.716Z,5.10
2023-04-05T07:26:50.910Z,4.88
2023-04-05T07:29:18.694Z,4.80
2023-04-05T07:31:46.313Z,4.80
2023-04-05T07:34:14.366Z,5.22
2023-04-05T07:36:41.979Z,4.85
2023-04-05T07:39:09.644Z,4.72
2023-04-05T07:41:38.007Z,4.47
2023-04-05T07:44:07.245Z,4.28
2023-04-05T07:46:35.768Z,3.83
2023-04-05T07:49:03.375Z,4.00
2023-04-05T07:51:31.451Z,3.88
2023-04-05T07:54:01.777Z,4.35
2023-04-05T07:56:30.786Z,4.28
2023-04-05T07:58:58.877Z,4.20
2023-04-05T08:01:28.486Z,3.67
2023-04-05T08:03:57.381Z,3.78
2023-04-05T08:06:27.014Z,4.10
2023-04-05T08:08:54.549Z,3.63
2023-04-05T08:11:22.624Z,3.83
2023-04-05T08:13:50.861Z,3.67
2023-04-05T08:16:18.460Z,3.92
2023-04-05T08:18:47.339Z,3.50
2023-04-05T08:21:14.938Z,3.60
2023-04-05T08:23:42.668Z,4.00
2023-04-05T08:26:10.707Z,3.88
2023-04-05T08:28:38.266Z,3.55
2023-04-05T08:31:06.034Z,3.40
2023-04-05T08:33:34.785Z,3.78
2023-04-05T08:36:06.837Z,3.40
2023-04-05T08:38:34.497Z,3.40
2023-04-05T08:41:09.573Z,3.72
2023-04-05T08:43:48.391Z,3.45
2023-04-05T08:46:18.671Z,3.47
2023-04-05T08:48:46.350Z,3.38
2023-04-05T08:51:19.956Z,3.58
2023-04-05T08:53:47.602Z,3.90
2023-04-05T08:56:17.826Z,3.78
2023-04-05T08:58:50.554Z,3.83
2023-04-05T09:01:18.200Z,3.75
2023-04-05T09:03:48.647Z,3.80
2023-04-05T09:06:18.551Z,3.45
2023-04-05T09:08:46.264Z,3.55
2023-04-05T09:11:14.596Z,3.83
2023-04-05T09:13:42.153Z,3.40
2023-04-05T09:16:10.896Z,4.05
2023-04-05T09:18:38.423Z,3.47
2023-04-05T09:21:06.623Z,3.60
2023-04-05T09:23:36.479Z,3.58
2023-04-05T09:26:18.486Z,4.20
2023-04-05T09:28:46.151Z,4.05
2023-04-05T09:31:33.392Z,3.60
2023-04-05T09:34:02.962Z,4.63
2023-04-05T09:36:32.845Z,4.28
2023-04-05T09:39:09.002Z,4.28
2023-04-05T09:41:37.630Z,3.55
2023-04-05T09:44:05.934Z,3.80
2023-04-05T09:46:35.387Z,3.90
2023-04-05T09:49:03.841Z,3.63
2023-04-05T09:51:36.262Z,3.60
2023-04-05T09:54:08.393Z,3.45
2023-04-05T09:56:37.318Z,3.00
2023-04-05T09:59:09.550Z,3.08
2023-04-05T10:01:39.039Z,3.08
2023-04-05T10:04:08.400Z,5.60
2023-04-05T10:06:38.144Z,5.40
2023-04-05T10:09:08.605Z,3.33
2023-04-05T10:11:37.370Z,3.65
2023-04-05T10:14:06.224Z,4.05
2023-04-05T10:16:39.320Z,2.70
2023-04-05T10:19:17.168Z,3.67
2023-04-05T10:21:47.358Z,3.38
2023-04-05T10:24:23.756Z,3.58
2023-04-05T10:27:00.940Z,3.17
2023-04-05T10:29:39.238Z,3.22
2023-04-05T10:32:13.758Z,3.10
2023-04-05T10:34:46.501Z,2.67
2023-04-05T10:37:29.142Z,2.85
2023-04-05T10:40:04.125Z,3.17
2023-04-05T10:42:41.346Z,2.75
2023-04-05T10:45:12.198Z,3.33
2023-04-05T10:47:44.099Z,2.90
2023-04-05T10:50:17.429Z,3.13
2023-04-05T10:55:16.918Z,2.85
2023-04-05T10:57:46.223Z,3.00
2023-04-05T11:00:15.528Z,3.60
2023-04-05T11:02:43.565Z,2.60
2023-04-05T11:05:33.492Z,2.83
2023-04-05T11:08:04.953Z,3.80
2023-04-05T11:10:36.215Z,2.83
2023-04-05T11:13:09.069Z,3.25
2023-04-05T11:15:37.143Z,2.90
2023-04-05T11:18:12.104Z,3.10
2023-04-05T11:20:51.494Z,2.90
2023-04-05T11:23:21.069Z,3.00
2023-04-05T11:25:54.357Z,2.80
2023-04-05T11:31:14.031Z,3.38
2023-04-05T11:33:59.879Z,3.20
2023-04-05T11:36:33.590Z,2.78
2023-04-05T11:39:27.109Z,2.60
2023-04-05T11:42:01.172Z,2.92
2023-04-05T11:44:29.302Z,3.20
2023-04-05T11:46:56.895Z,3.20
2023-04-05T11:49:25.260Z,2.60
2023-04-05T11:51:54.117Z,2.20
2023-04-05T11:54:32.271Z,2.67
2023-04-05T11:57:02.006Z,2.92
2023-04-05T11:59:34.296Z,4.32
2023-04-05T12:02:03.983Z,3.83
2023-04-05T12:04:31.790Z,4.40
2023-04-05T12:07:12.926Z,18.90
2023-04-05T12:10:00.507Z,15.90
2023-04-05T12:12:33.645Z,19.10
2023-04-05T12:15:01.693Z,11.57
2023-04-05T12:17:46.694Z,8.48
2023-04-05T12:20:16.297Z,3.22
2023-04-05T12:22:45.416Z,3.88
2023-04-05T12:25:14.407Z,7.80
2023-04-05T12:27:43.808Z,5.85
2023-04-05T12:30:17.698Z,4.47
2023-04-05T12:32:47.498Z,3.40
2023-04-05T12:35:17.345Z,3.47
2023-04-05T12:37:45.623Z,4.13
2023-04-05T12:40:14.048Z,2.83
2023-04-05T12:42:42.945Z,3.20
2023-04-05T12:45:12.894Z,3.67
2023-04-05T12:47:51.579Z,3.20
2023-04-05T12:50:20.745Z,3.10
2023-04-05T12:52:58.888Z,2.83
2023-04-05T12:55:28.071Z,3.40
2023-04-05T12:57:59.395Z,3.28
2023-04-05T13:00:28.394Z,2.90
2023-04-05T13:02:57.858Z,2.80
2023-04-05T13:05:27.072Z,3.25
2023-04-05T13:07:54.727Z,2.80
2023-04-05T13:10:24.922Z,2.65
2023-04-05T13:12:52.991Z,3.03
2023-04-05T13:15:22.482Z,2.55
2023-04-05T13:17:52.009Z,2.60
2023-04-05T13:20:19.829Z,2.65
2023-04-05T13:22:47.838Z,3.03
2023-04-05T13:25:16.027Z,2.92
2023-04-05T13:27:44.773Z,2.95
2023-04-05T13:30:12.985Z,2.47
2023-04-05T13:32:42.340Z,2.80
2023-04-05T13:35:10.968Z,2.80
2023-04-05T13:37:38.940Z,2.72
2023-04-05T13:40:08.045Z,2.53
2023-04-05T13:42:35.705Z,2.60
2023-04-05T13:45:03.446Z,2.60
2023-04-05T13:47:30.978Z,2.80
2023-04-05T13:49:59.931Z,2.40
2023-04-05T13:52:27.504Z,2.47
2023-04-05T13:55:02.137Z,2.50
2023-04-05T13:57:31.312Z,2.35
2023-04-05T13:59:59.038Z,2.42
2023-04-05T14:02:27.247Z,2.72
2023-04-05T14:04:55.460Z,2.30
2023-04-05T14:07:25.202Z,2.20
2023-04-05T14:09:52.827Z,2.33
2023-04-05T14:12:20.427Z,2.90
2023-04-05T14:14:48.097Z,2.13
2023-04-05T14:17:15.769Z,2.70
2023-04-05T14:19:43.464Z,2.15
2023-04-05T14:22:11.209Z,2.35
2023-04-05T14:24:40.258Z,2.00
2023-04-05T14:27:08.018Z,2.33
2023-04-05T14:29:35.727Z,2.17
2023-04-05T14:32:03.521Z,2.80
2023-04-05T14:34:31.553Z,2.80
2023-04-05T14:37:00.772Z,3.45
2023-04-05T14:39:28.449Z,2.50
2023-04-05T14:41:57.637Z,2.45
2023-04-05T14:44:26.789Z,2.13
2023-04-05T14:46:54.450Z,2.13
2023-04-05T14:49:22.279Z,2.10
2023-04-05T14:51:50.060Z,1.83
2023-04-05T14:54:18.410Z,2.05
2023-04-05T14:56:46.131Z,2.22
2023-04-05T14:59:15.292Z,2.00
2023-04-05T15:01:45.381Z,2.00
2023-04-05T15:04:13.305Z,1.58
2023-04-05T15:06:42.207Z,2.05
2023-04-05T15:09:09.880Z,2.28
2023-04-05T15:11:39.237Z,2.03
2023-04-05T15:14:08.561Z,1.83
2023-04-05T15:16:40.540Z,1.90
2023-04-05T15:19:08.202Z,2.05
2023-04-05T15:21:36.101Z,2.17
2023-04-05T15:24:03.778Z,1.70
2023-04-05T15:26:31.474Z,1.88
2023-04-05T15:28:59.093Z,2.10
2023-04-05T15:31:27.044Z,2.30
2023-04-05T15:33:56.651Z,2.20
2023-04-05T15:36:25.750Z,1.90
2023-04-05T15:38:53.471Z,2.03
2023-04-05T15:41:21.130Z,1.75
2023-04-05T15:43:48.855Z,2.05
2023-04-05T15:46:16.552Z,1.90
2023-04-05T15:48:44.710Z,1.65
2023-04-05T15:51:13.866Z,2.40
2023-04-05T15:53:41.640Z,1.85
2023-04-05T15:56:09.321Z,1.92
2023-04-05T15:58:37.588Z,2.10
2023-04-05T16:01:05.979Z,2.17
2023-04-05T16:03:34.014Z,2.22
2023-04-05T16:06:01.771Z,2.10
2023-04-05T16:08:30.971Z,1.90
2023-04-05T16:10:58.597Z,2.33
2023-04-05T16:13:26.553Z,1.70
2023-04-05T16:15:54.412Z,2.28
2023-04-05T16:18:23.816Z,1.40
2023-04-05T16:20:51.924Z,1.98
2023-04-05T16:23:19.722Z,1.77
2023-04-05T16:25:48.869Z,1.88
2023-04-05T16:28:16.564Z,1.60
2023-04-05T16:30:47.126Z,1.60
2023-04-05T16:33:15.618Z,1.60
2023-04-05T16:35:43.328Z,1.85
2023-04-05T16:38:10.961Z,2.10
2023-04-05T16:40:38.673Z,2.05
2023-04-05T16:43:07.723Z,1.73
2023-04-05T16:45:36.410Z,1.80
2023-04-05T16:48:04.361Z,1.83
2023-04-05T16:50:32.275Z,1.75
2023-04-05T16:53:00.452Z,1.50
2023-04-05T16:55:28.187Z,1.83
2023-04-05T16:57:56.906Z,1.70
2023-04-05T17:00:26.073Z,1.73
2023-04-05T17:02:54.498Z,1.85
2023-04-05T17:05:22.539Z,1.90
2023-04-05T17:07:50.169Z,2.00
2023-04-05T17:10:18.029Z,2.10
2023-04-05T17:12:46.533Z,2.20
2023-04-05T17:15:14.502Z,1.83
2023-04-05T17:17:43.565Z,6.13
2023-04-05T17:20:12.668Z,2.10
2023-04-05T17:22:40.958Z,1.98
2023-04-05T17:25:09.494Z,1.80
2023-04-05T17:27:37.315Z,1.70
2023-04-05T17:30:05.905Z,2.17
2023-04-05T17:32:34.711Z,2.03
2023-04-05T17:35:03.758Z,2.20
2023-04-05T17:37:31.682Z,1.88
2023-04-05T17:39:59.417Z,2.00
2023-04-05T17:42:27.291Z,2.10
2023-04-05T17:44:56.725Z,1.90
2023-04-05T17:47:24.581Z,1.90
2023-04-05T17:49:52.356Z,1.80
2023-04-05T17:52:22.541Z,1.83
2023-04-05T17:54:52.270Z,1.92
2023-04-05T17:57:20.208Z,1.40
2023-04-05T17:59:47.893Z,1.65
2023-04-05T18:02:15.645Z,1.60
2023-04-05T18:04:43.406Z,2.10
2023-04-05T18:07:11.091Z,2.83
2023-04-05T18:09:42.154Z,7.57
2023-04-05T18:12:09.948Z,10.05
2023-04-05T18:14:37.809Z,13.90
2023-04-05T18:17:06.864Z,5.63
2023-04-05T18:19:34.732Z,4.20
2023-04-05T18:22:02.545Z,4.22
2023-04-05T18:24:31.005Z,3.47
2023-04-05T18:27:00.107Z,3.42
2023-04-05T18:29:30.453Z,2.58
2023-04-05T18:31:58.294Z,2.80
2023-04-05T18:34:26.273Z,3.30
2023-04-05T18:36:53.991Z,2.50
2023-04-05T18:39:21.779Z,2.42
2023-04-05T18:41:49.390Z,2.85
2023-04-05T18:44:18.457Z,2.80
2023-04-05T18:46:46.145Z,2.42
2023-04-05T18:49:15.721Z,2.58
2023-04-05T18:51:43.524Z,3.17
2023-04-05T18:54:11.262Z,2.90
2023-04-05T18:56:38.919Z,2.67
2023-04-05T18:59:06.859Z,3.60
2023-04-05T19:01:36.211Z,2.60
2023-04-05T19:04:04.730Z,2.55
2023-04-05T19:06:32.574Z,2.60
2023-04-05T19:09:00.234Z,3.03
2023-04-05T19:11:28.031Z,2.50
2023-04-05T19:13:55.974Z,2.60
2023-04-05T19:16:23.648Z,2.22
2023-04-05T19:18:53.527Z,2.42
2023-04-05T19:21:21.321Z,3.47
2023-04-05T19:23:49.672Z,5.60
2023-04-05T19:26:17.273Z,4.25
2023-04-05T19:28:44.956Z,2.72
2023-04-05T19:31:12.786Z,2.50
2023-04-05T19:33:40.661Z,2.28
2023-04-05T19:36:09.719Z,2.70
2023-04-05T19:38:37.506Z,2.22
2023-04-05T19:41:05.218Z,2.28
2023-04-05T19:43:33.400Z,2.65
2023-04-05T19:46:01.378Z,7.28
2023-04-05T19:48:37.421Z,9.68
2023-04-05T19:51:07.032Z,10.77
2023-04-05T19:53:47.924Z,5.63
2023-04-05T19:56:18.553Z,4.30
2023-04-05T19:58:48.505Z,3.58
2023-04-05T20:01:30.659Z,4.82
2023-04-05T20:03:58.626Z,4.05
2023-04-05T20:06:27.081Z,4.15
2023-04-05T20:09:02.369Z,3.85
2023-04-05T20:11:30.942Z,4.10
2023-04-05T20:14:01.725Z,3.90
2023-04-05T20:16:33.064Z,5.47
2023-04-05T20:19:03.334Z,6.90
2023-04-05T20:21:31.210Z,4.50
2023-04-05T20:24:01.168Z,3.22
2023-04-05T20:26:31.325Z,4.20
2023-04-05T20:29:04.243Z,3.78
2023-04-05T20:31:33.535Z,4.55
2023-04-05T20:34:10.561Z,4.25
2023-04-05T20:36:39.628Z,3.92
2023-04-05T20:39:08.950Z,3.90
2023-04-05T20:41:37.075Z,4.90
2023-04-05T20:44:04.939Z,4.07
2023-04-05T20:46:32.763Z,4.70
2023-04-05T20:49:00.738Z,4.00
2023-04-05T20:51:28.427Z,4.57
2023-04-05T20:53:56.354Z,4.10
2023-04-05T20:56:25.499Z,4.85
2023-04-05T20:58:54.456Z,5.22
2023-04-05T21:01:22.334Z,5.22
2023-04-05T21:03:50.237Z,4.95
2023-04-05T21:06:18.008Z,5.88
2023-04-05T21:08:46.200Z,5.03
2023-04-05T21:11:13.929Z,6.18
2023-04-05T21:13:43.391Z,6.15
2023-04-05T21:16:11.404Z,6.20
2023-04-05T21:18:39.217Z,6.80
2023-04-05T21:21:07.128Z,6.88
2023-04-05T21:23:35.168Z,6.70
2023-04-05T21:26:04.122Z,6.60
2023-04-05T21:28:32.064Z,6.03
2023-04-05T21:31:01.568Z,7.28
2023-04-05T21:33:29.435Z,7.28
2023-04-05T21:35:57.215Z,7.57
2023-04-05T21:38:25.070Z,7.25
2023-04-05T21:40:52.825Z,6.70
2023-04-05T21:43:20.591Z,9.32
2023-04-05T21:45:48.326Z,7.90
2023-04-05T21:48:17.490Z,6.75
2023-04-05T21:50:45.252Z,6.97
2023-04-05T21:53:14.424Z,6.82
2023-04-05T21:55:42.239Z,6.60
2023-04-05T21:58:09.969Z,6.07
2023-04-05T22:00:37.795Z,5.90
2023-04-05T22:03:05.600Z,6.00
2023-04-05T22:05:38.394Z,6.38
2023-04-05T22:08:07.589Z,6.07
2023-04-05T22:10:36.313Z,5.82
2023-04-05T22:13:04.088Z,4.85
2023-04-05T22:15:31.821Z,4.65
2023-04-05T22:17:59.915Z,4.80
2023-04-05T22:20:27.701Z,5.40
2023-04-05T22:22:57.003Z,4.97
2023-04-05T22:25:26.324Z,5.47
2023-04-05T22:27:59.361Z,5.53
2023-04-05T22:30:28.224Z,5.10
2023-04-05T22:32:56.327Z,5.22
2023-04-05T22:35:24.189Z,5.05
2023-04-05T22:37:51.918Z,5.15
2023-04-05T22:40:26.264Z,5.32
2023-04-05T22:42:54.181Z,5.50
2023-04-05T22:45:21.871Z,5.30
2023-04-05T22:47:49.584Z,5.00
2023-04-05T22:50:17.471Z,5.65
2023-04-05T22:52:45.960Z,4.95
2023-04-05T22:55:13.945Z,5.25
2023-04-05T22:57:43.002Z,5.22
2023-04-05T23:00:12.248Z,5.10
2023-04-05T23:02:40.012Z,5.60
2023-04-05T23:05:08.640Z,4.90
2023-04-05T23:07:36.396Z,5.22
2023-04-05T23:10:04.535Z,5.35
2023-04-05T23:12:32.300Z,4.93
2023-04-05T23:15:01.315Z,4.82
2023-04-05T23:17:29.109Z,5.07
2023-04-05T23:19:56.892Z,6.50
2023-04-05T23:22:24.621Z,6.10
2023-04-05T23:24:52.526Z,6.05
2023-04-05T23:27:20.989Z,5.55
2023-04-05T23:29:48.753Z,5.28
2023-04-05T23:32:17.837Z,5.22
2023-04-05T23:34:45.610Z,5.32
2023-04-05T23:37:13.299Z,4.88
2023-04-05T23:39:41.085Z,4.60
2023-04-05T23:42:09.319Z,4.50
2023-04-05T23:44:38.651Z,4.38
2023-04-05T23:47:06.482Z,4.93
2023-04-05T23:49:35.640Z,4.50
2023-04-05T23:52:03.452Z,4.40
2023-04-05T23:54:31.254Z,4.78
2023-04-05T23:56:59.151Z,4.70
2023-04-05T23:59:26.951Z,4.68
